Time;durP1;ratioP1;P1;durP2;ratioP2;P2;SDS_P1;SDS_P2;PMS_P1;PMS_P2;Temp;Humidity;BMP_temperature;BMP_pressure;BME280_temperature;BME280_humidity;BME280_pressure;Samples;Min_cycle;Max_cycle;Signal;HPM_P1;HPM_P2
2024/01/21 00:00:38;;;;;;;10.05;5.82;;;;;;;-0.31;100.00;102301.19;6088646;19;20489;-72
2024/01/21 00:02:43;;;;;;;9.48;6.25;;;;;;;-0.29;100.00;102293.47;6082490;19;20014;-75
2024/01/21 00:04:48;;;;;;;12.20;7.22;;;;;;;-0.26;100.00;102291.88;6088674;19;20011;-75
2024/01/21 00:06:56;;;;;;;15.00;7.20;;;;;;;-0.27;100.00;102294.41;6089597;19;20471;-72
2024/01/21 00:09:01;;;;;;;9.52;5.57;;;;;;;-0.24;100.00;102295.38;6082736;19;20039;-72
2024/01/21 00:11:07;;;;;;;11.10;6.40;;;;;;;-0.21;100.00;102289.41;6089121;19;20014;-71
2024/01/21 00:13:12;;;;;;;10.40;5.90;;;;;;;-0.23;100.00;102286.78;6088732;19;20134;-72
2024/01/21 00:15:17;;;;;;;14.20;6.10;;;;;;;-0.24;100.00;102281.56;6086661;19;20019;-72
2024/01/21 00:17:22;;;;;;;13.63;6.07;;;;;;;-0.27;100.00;102281.47;6087100;19;20011;-72
2024/01/21 00:19:27;;;;;;;11.20;5.63;;;;;;;-0.26;100.00;102286.72;6089611;19;20010;-72
2024/01/21 00:21:33;;;;;;;11.35;5.75;;;;;;;-0.25;100.00;102272.06;6084692;19;20034;-72
2024/01/21 00:23:41;;;;;;;13.63;5.85;;;;;;;-0.28;100.00;102256.50;6089803;19;20032;-71
2024/01/21 00:25:46;;;;;;;12.73;6.63;;;;;;;-0.29;100.00;102252.16;6086493;19;20007;-72
2024/01/21 00:27:51;;;;;;;9.38;4.53;;;;;;;-0.27;100.00;102241.03;6087605;19;20031;-74
2024/01/21 00:29:56;;;;;;;8.98;4.35;;;;;;;-0.23;100.00;102240.28;6087753;19;20007;-72
2024/01/21 00:32:01;;;;;;;6.07;4.35;;;;;;;-0.29;100.00;102231.47;6084962;19;20089;-72
2024/01/21 00:34:06;;;;;;;8.48;5.38;;;;;;;-0.25;100.00;102220.41;6087297;19;20010;-73
2024/01/21 00:36:12;;;;;;;8.82;6.38;;;;;;;-0.23;100.00;102213.59;6088779;19;20017;-74
2024/01/21 00:38:17;;;;;;;8.90;5.32;;;;;;;-0.30;100.00;102207.38;6088444;19;20006;-73
2024/01/21 00:40:25;;;;;;;9.88;5.28;;;;;;;-0.24;100.00;102197.22;6082327;19;20043;-72
2024/01/21 00:42:30;;;;;;;8.75;5.32;;;;;;;-0.25;100.00;102195.44;6088639;19;20021;-76
2024/01/21 00:44:36;;;;;;;8.30;4.72;;;;;;;-0.19;100.00;102188.69;6088186;19;20023;-73
2024/01/21 00:46:41;;;;;;;11.32;4.53;;;;;;;-0.15;100.00;102182.78;6086112;19;20428;-73
2024/01/21 00:48:47;;;;;;;8.63;5.45;;;;;;;-0.28;100.00;102187.63;6083848;19;20588;-73
2024/01/21 00:50:52;;;;;;;9.02;4.55;;;;;;;-0.18;100.00;102180.13;6087052;19;20054;-72
2024/01/21 00:52:57;;;;;;;9.52;5.35;;;;;;;-0.24;100.00;102175.66;6082347;19;20073;-71
2024/01/21 00:55:05;;;;;;;11.45;5.00;;;;;;;-0.23;100.00;102161.91;6084868;19;20077;-72
2024/01/21 00:57:13;;;;;;;10.32;4.57;;;;;;;-0.23;100.00;102169.66;6087037;19;20015;-71
2024/01/21 00:59:18;;;;;;;8.25;4.75;;;;;;;-0.19;100.00;102157.69;6085372;19;20041;-71
2024/01/21 01:01:23;;;;;;;12.35;4.30;;;;;;;-0.16;100.00;102153.47;6082042;19;20014;-71
2024/01/21 01:03:31;;;;;;;7.00;4.88;;;;;;;-0.18;100.00;102147.41;6084563;19;20515;-72
2024/01/21 01:05:36;;;;;;;8.90;5.07;;;;;;;-0.20;100.00;102150.78;6085604;19;20034;-73
2024/01/21 01:07:41;;;;;;;9.57;4.95;;;;;;;-0.20;100.00;102146.50;6087769;19;20009;-70
2024/01/21 01:09:46;;;;;;;4.85;3.35;;;;;;;-0.20;100.00;102145.63;6082045;19;20373;-71
2024/01/21 01:11:49;;;;;;;10.85;4.63;;;;;;;-0.23;100.00;102143.84;6086701;19;20510;-71
2024/01/21 01:13:56;;;;;;;7.68;4.38;;;;;;;-0.19;100.00;102147.34;6082319;19;20879;-71
2024/01/21 01:16:02;;;;;;;8.82;4.22;;;;;;;-0.22;100.00;102143.00;6083754;19;20081;-71
2024/01/21 01:18:10;;;;;;;7.95;4.40;;;;;;;-0.16;100.00;102137.09;6083053;19;20011;-71
2024/01/21 01:20:16;;;;;;;8.77;4.72;;;;;;;-0.20;100.00;102146.50;6085914;19;20010;-72
2024/01/21 01:22:21;;;;;;;8.35;4.45;;;;;;;-0.19;100.00;102145.63;6075590;19;20006;-72
2024/01/21 01:24:26;;;;;;;;;;;;;;;-0.19;100.00;102137.91;6080568;19;20046;-72
2024/01/21 01:26:31;;;;;;;8.88;3.75;;;;;;;-0.21;100.00;102142.19;6085942;19;19940;-72
2024/01/21 01:28:36;;;;;;;8.27;4.50;;;;;;;-0.23;100.00;102126.63;6088439;19;20010;-72
2024/01/21 01:30:44;;;;;;;7.68;4.18;;;;;;;-0.22;100.00;102122.31;6084960;19;20006;-72
2024/01/21 01:32:49;;;;;;;8.43;4.35;;;;;;;-0.24;100.00;102109.38;6082580;19;20003;-71
2024/01/21 01:34:54;;;;;;;4.47;2.88;;;;;;;-0.22;100.00;102112.84;6086008;19;20052;-71
2024/01/21 01:37:00;;;;;;;9.20;3.42;;;;;;;-0.24;100.00;102116.25;6085301;19;20013;-72
2024/01/21 01:39:07;;;;;;;6.88;3.65;;;;;;;-0.18;100.00;102115.53;6080722;19;20027;-72
2024/01/21 01:41:12;;;;;;;11.75;4.65;;;;;;;-0.15;100.00;102113.03;6086818;19;20024;-72
2024/01/21 01:43:17;;;;;;;8.77;4.97;;;;;;;-0.25;100.00;102106.75;6086334;19;20309;-71
2024/01/21 01:45:22;;;;;;;6.93;3.70;;;;;;;-0.21;100.00;102113.75;6082053;19;20006;-71
2024/01/21 01:47:29;;;;;;;9.15;4.40;;;;;;;-0.26;100.00;102105.88;6083242;19;20379;-71
2024/01/21 01:49:36;;;;;;;10.00;4.88;;;;;;;-0.22;100.00;102096.50;6080773;19;20014;-70
2024/01/21 01:51:41;;;;;;;7.40;4.55;;;;;;;-0.20;100.00;102100.00;6082267;19;20046;-74
2024/01/21 01:53:47;;;;;;;8.88;4.90;;;;;;;-0.20;100.00;102088.78;6079629;19;20038;-71
2024/01/21 01:55:52;;;;;;;7.25;3.47;;;;;;;-0.21;100.00;102082.75;6085412;19;20007;-73
2024/01/21 01:57:59;;;;;;;8.98;3.90;;;;;;;-0.23;100.00;102076.69;6085771;19;20026;-73
2024/01/21 02:00:06;;;;;;;8.57;3.83;;;;;;;-0.23;100.00;102081.84;6082362;19;20458;-73
2024/01/21 02:02:13;;;;;;;9.02;3.78;;;;;;;-0.22;100.00;102073.25;6085638;19;20014;-72
2024/01/21 02:04:20;;;;;;;10.50;5.20;;;;;;;-0.23;100.00;102076.69;6082771;19;20380;-71
2024/01/21 02:06:25;;;;;;;9.95;3.92;;;;;;;-0.25;100.00;102070.59;6080134;19;20014;-73
2024/01/21 02:08:32;;;;;;;7.13;3.88;;;;;;;-0.24;100.00;102062.88;6077540;19;20428;-72
2024/01/21 02:10:37;;;;;;;8.48;3.65;;;;;;;-0.28;100.00;102061.06;6080441;19;20026;-72
2024/01/21 02:12:45;;;;;;;6.80;3.25;;;;;;;-0.33;100.00;102054.91;6082248;19;20070;-71
2024/01/21 02:14:51;;;;;;;6.63;3.63;;;;;;;-0.31;100.00;102054.97;6080101;19;20042;-72
2024/01/21 02:16:56;;;;;;;7.55;4.07;;;;;;;-0.28;100.00;102049.88;6082703;19;20006;-71
2024/01/21 02:19:04;;;;;;;10.68;4.43;;;;;;;-0.31;100.00;102057.53;6081043;19;20007;-72
2024/01/21 02:21:12;;;;;;;10.30;4.45;;;;;;;-0.32;100.00;102066.09;6079431;19;20011;-70
2024/01/21 02:23:20;;;;;;;6.00;3.63;;;;;;;-0.29;100.00;102051.56;6082265;19;20504;-73
2024/01/21 02:25:25;;;;;;;9.93;4.18;;;;;;;-0.30;100.00;102047.22;6077606;19;20011;-73
2024/01/21 02:27:30;;;;;;;10.35;5.15;;;;;;;-0.27;100.00;102051.59;6085968;19;20082;-73
2024/01/21 02:29:35;;;;;;;5.47;3.33;;;;;;;-0.24;100.00;102043.91;6081470;19;20002;-72
2024/01/21 02:31:40;;;;;;;5.50;3.17;;;;;;;-0.26;100.00;102036.16;6086280;19;20011;-72
2024/01/21 02:33:45;;;;;;;12.75;4.40;;;;;;;-0.29;100.00;102023.16;6084202;19;20089;-73
2024/01/21 02:35:50;;;;;;;7.20;4.47;;;;;;;-0.32;100.00;102017.03;6084921;19;20097;-74
2024/01/21 02:37:52;;;;;;;6.78;3.88;;;;;;;-0.30;100.00;102005.91;6078656;19;21877;-74
2024/01/21 02:40:00;;;;;;;7.70;4.00;;;;;;;-0.27;100.00;102002.53;6084110;19;20597;-71
2024/01/21 02:42:06;;;;;;;7.20;4.03;;;;;;;-0.31;100.00;101988.69;6085381;19;20462;-73
2024/01/21 02:44:11;;;;;;;6.40;3.85;;;;;;;-0.27;100.00;101969.81;6081594;19;20366;-74
2024/01/21 02:46:19;;;;;;;9.10;3.58;;;;;;;-0.30;100.00;101974.03;6078288;19;20013;-71
2024/01/21 02:48:22;;;;;;;6.43;4.30;;;;;;;-0.31;100.00;101972.31;6082152;19;20062;-71
2024/01/21 02:50:27;;;;;;;9.00;4.40;;;;;;;-0.31;100.00;101970.59;6081037;19;20006;-73
2024/01/21 02:52:32;;;;;;;5.43;3.38;;;;;;;-0.25;100.00;101975.03;6076091;19;20010;-73
2024/01/21 02:54:35;;;;;;;6.43;3.25;;;;;;;-0.22;100.00;101957.88;6078622;19;20027;-73
2024/01/21 02:56:43;;;;;;;5.05;3.42;;;;;;;-0.24;100.00;101953.50;6084849;19;20349;-72
2024/01/21 02:58:45;;;;;;;6.65;3.97;;;;;;;-0.27;100.00;101950.84;6080040;19;20011;-73
2024/01/21 03:00:50;;;;;;;6.03;3.45;;;;;;;-0.23;100.00;101955.25;6079479;19;20017;-73
2024/01/21 03:02:58;;;;;;;6.40;3.80;;;;;;;-0.22;100.00;101959.59;6080603;19;20780;-73
2024/01/21 03:05:04;;;;;;;11.25;4.38;;;;;;;-0.23;100.00;101955.25;6080848;19;20007;-73
2024/01/21 03:07:09;;;;;;;14.68;3.97;;;;;;;-0.16;100.00;101957.13;6085039;19;20042;-73
2024/01/21 03:09:15;;;;;;;5.93;2.83;;;;;;;-0.20;100.00;101957.91;6089832;19;20098;-73
2024/01/21 03:11:20;;;;;;;6.00;3.60;;;;;;;-0.17;100.00;101955.38;6093505;19;20015;-74
2024/01/21 03:13:30;;;;;;;6.05;3.05;;;;;;;-0.17;100.00;101959.69;6091102;19;20537;-74
2024/01/21 03:15:35;;;;;;;5.80;3.38;;;;;;;-0.15;100.00;101942.53;6086028;19;20376;-71
2024/01/21 03:17:40;;;;;;;6.60;3.67;;;;;;;-0.14;100.00;101934.78;6088689;19;20007;-72
2024/01/21 03:19:45;;;;;;;7.63;4.20;;;;;;;-0.15;100.00;101945.97;6095933;19;20021;-72
2024/01/21 03:21:57;;;;;;;6.88;4.45;;;;;;;-0.16;100.00;101946.78;6093772;19;20019;-72
2024/01/21 03:24:03;;;;;;;6.57;3.65;;;;;;;-0.11;100.00;101945.19;6093958;19;20862;-73
2024/01/21 03:26:06;;;;;;;6.35;3.33;;;;;;;-0.10;100.00;101936.59;6093497;19;20146;-72
2024/01/21 03:28:12;;;;;;;9.73;4.80;;;;;;;-0.08;100.00;101946.94;6093079;19;20107;-72
2024/01/21 03:30:24;;;;;;;3.40;2.72;;;;;;;-0.01;100.00;101923.84;6090634;19;20473;-73
2024/01/21 03:32:32;;;;;;;8.85;3.60;;;;;;;-0.03;100.00;101925.56;6093994;19;20014;-73
2024/01/21 03:34:42;;;;;;;7.85;4.10;;;;;;;-0.07;100.00;101923.75;6095272;19;20018;-73
2024/01/21 03:36:49;;;;;;;9.18;4.30;;;;;;;-0.04;100.00;101917.78;6088119;19;20011;-74
2024/01/21 03:38:58;;;;;;;5.05;2.70;;;;;;;0.10;100.00;101916.31;6091910;19;20239;-73
2024/01/21 03:41:08;;;;;;;6.60;3.38;;;;;;;0.09;100.00;101916.31;6093693;19;20043;-71
2024/01/21 03:43:13;;;;;;;6.22;3.97;;;;;;;0.02;100.00;101917.00;6090629;19;20010;-72
2024/01/21 03:45:22;;;;;;;5.03;3.30;;;;;;;0.08;100.00;101919.72;6089025;19;20019;-72
2024/01/21 03:47:27;;;;;;;6.63;4.25;;;;;;;0.19;100.00;101918.25;6092725;19;20020;-71
2024/01/21 03:49:33;;;;;;;3.90;2.33;;;;;;;0.20;100.00;101925.13;6089629;19;20007;-72
2024/01/21 03:51:38;;;;;;;11.48;3.92;;;;;;;0.27;100.00;101913.22;6085530;19;20913;-72
2024/01/21 03:53:48;;;;;;;8.75;4.72;;;;;;;0.30;100.00;101905.50;6090227;19;20086;-72
2024/01/21 03:55:53;;;;;;;6.70;3.88;;;;;;;0.30;100.00;101875.34;6090271;19;20490;-73
2024/01/21 03:57:59;;;;;;;6.55;3.72;;;;;;;0.30;100.00;101862.44;6091759;19;20024;-72
2024/01/21 04:00:18;;;;;;;6.28;3.63;;;;;;;0.33;100.00;101857.31;6089435;19;20098;-73
2024/01/21 04:02:26;;;;;;;7.88;4.38;;;;;;;0.30;100.00;101859.84;6092793;19;20345;-73
2024/01/21 04:04:30;;;;;;;7.38;3.33;;;;;;;0.31;100.00;101856.41;6094161;19;20350;-72
2024/01/21 04:06:42;;;;;;;7.32;3.97;;;;;;;0.30;100.00;101867.59;6086161;19;20074;-73
2024/01/21 04:08:44;;;;;;;3.90;3.03;;;;;;;0.35;100.00;101862.53;6091884;19;20279;-73
2024/01/21 04:10:50;;;;;;;11.82;4.68;;;;;;;0.34;100.00;101853.00;6078147;19;20011;-72
2024/01/21 04:12:56;;;;;;;9.40;4.32;;;;;;;0.34;100.00;101848.72;6089203;19;20526;-71
2024/01/21 04:15:01;;;;;;;7.32;2.90;;;;;;;0.32;100.00;101863.34;6092370;19;20014;-72
2024/01/21 04:17:09;;;;;;;5.47;3.38;;;;;;;0.34;100.00;101877.16;6093166;19;20022;-72
2024/01/21 04:19:20;;;;;;;5.97;3.50;;;;;;;0.41;100.00;101862.63;6083262;19;20047;-72
2024/01/21 04:21:23;;;;;;;6.63;3.92;;;;;;;0.38;100.00;101837.56;6085010;19;20014;-72
2024/01/21 04:23:30;;;;;;;6.80;3.63;;;;;;;0.48;100.00;101858.44;6089666;19;20014;-72
2024/01/21 04:25:35;;;;;;;10.48;5.00;;;;;;;0.47;100.00;101860.13;6087754;19;20613;-71
2024/01/21 04:27:40;;;;;;;9.80;3.60;;;;;;;0.46;100.00;101849.78;6076684;19;20121;-72
2024/01/21 04:29:43;;;;;;;8.57;4.25;;;;;;;0.54;100.00;101830.94;6082772;19;20013;-72
2024/01/21 04:31:48;;;;;;;7.28;4.53;;;;;;;0.57;100.00;101848.22;6085931;19;20050;-72
2024/01/21 04:33:54;;;;;;;7.40;3.72;;;;;;;0.55;100.00;101835.25;6082433;19;20307;-72
2024/01/21 04:36:03;;;;;;;9.80;4.28;;;;;;;0.59;100.00;101836.22;6081938;19;20027;-71
2024/01/21 04:38:08;;;;;;;6.15;4.30;;;;;;;0.62;100.00;101844.00;6087356;19;20014;-74
2024/01/21 04:40:14;;;;;;;8.05;3.53;;;;;;;0.63;100.00;101837.97;6090360;19;20006;-72
2024/01/21 04:42:19;;;;;;;6.43;4.65;;;;;;;0.75;100.00;101845.94;6080113;19;20477;-73
2024/01/21 04:44:26;;;;;;;7.05;4.82;;;;;;;0.81;100.00;101863.28;6085886;19;20440;-71
2024/01/21 04:46:35;;;;;;;9.25;4.15;;;;;;;0.77;100.00;101870.13;6080077;19;20038;-71
2024/01/21 04:48:40;;;;;;;7.72;4.82;;;;;;;0.82;100.00;101852.09;6084469;19;20007;-71
2024/01/21 04:50:45;;;;;;;6.38;4.03;;;;;;;0.90;100.00;101850.50;6083561;19;20018;-71
2024/01/21 04:52:50;;;;;;;8.95;5.20;;;;;;;0.90;100.00;101836.72;6082533;19;20036;-71
2024/01/21 04:54:55;;;;;;;8.35;4.18;;;;;;;0.93;100.00;101832.44;6087181;19;20014;-72
2024/01/21 04:57:00;;;;;;;6.90;4.47;;;;;;;0.90;100.00;101829.81;6083007;19;20085;-72
2024/01/21 04:59:03;;;;;;;7.30;4.45;;;;;;;0.83;100.00;101825.38;6085049;19;20502;-72
2024/01/21 05:01:08;;;;;;;6.25;3.97;;;;;;;0.87;100.00;101803.88;6081774;19;20334;-72
2024/01/21 05:03:13;;;;;;;10.57;4.75;;;;;;;0.86;100.00;101800.41;6084005;19;20078;-71
2024/01/21 05:05:18;;;;;;;8.10;3.95;;;;;;;0.84;100.00;101796.94;6081232;19;20035;-71
2024/01/21 05:07:23;;;;;;;8.82;5.13;;;;;;;0.87;100.00;101765.94;6083737;19;20031;-71
2024/01/21 05:09:33;;;;;;;8.25;3.55;;;;;;;0.82;100.00;101746.88;6086326;19;20486;-71
2024/01/21 05:11:39;;;;;;;8.20;3.50;;;;;;;0.84;100.00;101740.03;6084057;19;20014;-71
2024/01/21 05:13:44;;;;;;;8.10;4.00;;;;;;;0.79;100.00;101757.19;6081073;19;20546;-72
2024/01/21 05:15:53;;;;;;;5.53;3.00;;;;;;;0.80;100.00;101804.63;6084300;19;20046;-74
2024/01/21 05:18:01;;;;;;;7.70;3.85;;;;;;;0.86;100.00;101761.59;6078030;19;20016;-73
2024/01/21 05:20:09;;;;;;;4.80;3.88;;;;;;;0.83;100.00;101733.09;6080368;19;20082;-71
2024/01/21 05:22:11;;;;;;;5.68;3.72;;;;;;;0.80;100.00;101740.81;6084017;19;20010;-71
2024/01/21 05:24:16;;;;;;;7.85;4.53;;;;;;;0.82;100.00;101754.66;6083261;19;20010;-72
2024/01/21 05:26:26;;;;;;;9.65;4.25;;;;;;;0.81;100.00;101746.84;6084277;19;20014;-72
2024/01/21 05:28:34;;;;;;;7.00;3.60;;;;;;;0.75;100.00;101716.59;6083690;19;20191;-73
2024/01/21 05:30:39;;;;;;;5.32;4.18;;;;;;;0.77;100.00;101756.31;6087914;19;20006;-72
2024/01/21 05:32:46;;;;;;;6.68;3.72;;;;;;;0.82;100.00;101758.97;6084661;19;20575;-72
2024/01/21 05:34:51;;;;;;;7.20;3.67;;;;;;;0.84;100.00;101781.44;6076048;19;20440;-72
2024/01/21 05:36:56;;;;;;;10.20;5.20;;;;;;;0.81;100.00;101734.78;6083822;19;20365;-72
2024/01/21 05:39:03;;;;;;;6.20;3.67;;;;;;;0.86;100.00;101750.38;6085888;19;20456;-73
2024/01/21 05:41:08;;;;;;;8.60;4.20;;;;;;;0.85;100.00;101805.56;6082845;19;20007;-71
2024/01/21 05:43:16;;;;;;;5.18;4.28;;;;;;;0.84;100.00;101790.88;6080419;19;20753;-71
2024/01/21 05:45:21;;;;;;;7.13;3.67;;;;;;;0.84;100.00;101789.19;6086352;19;20006;-71
2024/01/21 05:47:26;;;;;;;10.20;4.72;;;;;;;0.79;100.00;101779.59;6085203;19;20125;-73
2024/01/21 05:49:35;;;;;;;9.05;4.13;;;;;;;0.76;100.00;101759.72;6081754;19;20506;-72
2024/01/21 05:51:40;;;;;;;8.70;4.40;;;;;;;0.79;100.00;101782.19;6078885;19;20471;-72
2024/01/21 05:53:45;;;;;;;7.90;5.03;;;;;;;0.81;100.00;101801.19;6078608;19;20430;-72
2024/01/21 05:55:50;;;;;;;6.63;3.72;;;;;;;0.84;100.00;101770.19;6081625;19;20015;-71
2024/01/21 05:57:57;;;;;;;11.23;5.38;;;;;;;0.82;100.00;101774.50;6079764;19;20665;-72
2024/01/21 06:00:02;;;;;;;7.70;4.20;;;;;;;0.82;100.00;101785.69;6082757;19;20014;-73
2024/01/21 06:02:10;;;;;;;7.43;4.28;;;;;;;0.82;100.00;101783.13;6080341;19;20650;-71
2024/01/21 06:04:16;;;;;;;7.90;4.35;;;;;;;0.84;100.00;101784.00;6081006;19;20020;-72
2024/01/21 06:06:18;;;;;;;9.55;4.30;;;;;;;0.78;100.00;101790.78;6084063;19;20010;-72
2024/01/21 06:08:23;;;;;;;5.53;3.75;;;;;;;0.79;100.00;101800.28;6085099;19;20007;-74
2024/01/21 06:10:30;;;;;;;11.40;4.90;;;;;;;0.75;100.00;101781.28;6081608;19;20035;-72
2024/01/21 06:12:35;;;;;;;9.23;4.10;;;;;;;0.74;100.00;101779.53;6081830;19;20005;-71
2024/01/21 06:14:40;;;;;;;6.75;4.25;;;;;;;0.73;100.00;101772.63;6083983;19;20308;-72
2024/01/21 06:16:48;;;;;;;7.57;3.47;;;;;;;0.79;100.00;101787.34;6084398;19;20010;-72
2024/01/21 06:18:53;;;;;;;7.47;4.30;;;;;;;0.79;100.00;101788.25;6080821;19;20566;-73
2024/01/21 06:21:01;;;;;;;9.70;4.60;;;;;;;0.73;100.00;101787.28;6078665;19;20010;-72
2024/01/21 06:23:06;;;;;;;4.90;3.42;;;;;;;0.74;100.00;101799.34;6083353;19;20011;-72
2024/01/21 06:25:11;;;;;;;11.82;4.40;;;;;;;0.73;100.00;101798.47;6079563;19;20046;-73
2024/01/21 06:27:14;;;;;;;11.07;4.22;;;;;;;0.72;100.00;101781.22;6076622;19;20039;-72
2024/01/21 06:29:19;;;;;;;;;;;;;;;0.70;100.00;101757.06;6086286;19;20022;-72
2024/01/21 06:31:24;;;;;;;8.20;4.18;;;;;;;0.65;100.00;101738.88;6086096;19;19911;-73
2024/01/21 06:33:34;;;;;;;11.70;5.13;;;;;;;0.61;100.00;101731.94;6081860;19;20002;-71
2024/01/21 06:35:39;;;;;;;9.02;4.88;;;;;;;0.63;100.00;101739.69;6079944;19;20053;-70
2024/01/21 06:37:44;;;;;;;7.82;4.13;;;;;;;0.67;100.00;101694.06;6082738;19;20462;-71
2024/01/21 06:39:49;;;;;;;12.70;4.20;;;;;;;0.71;100.00;101676.03;6083631;19;20027;-71
2024/01/21 06:42:04;;;;;;;7.40;3.95;;;;;;;0.68;100.00;101696.66;6072823;19;20065;-72
2024/01/21 06:44:10;;;;;;;7.53;4.30;;;;;;;0.74;100.00;101681.25;6082498;19;20011;-72
2024/01/21 06:46:17;;;;;;;7.15;3.63;;;;;;;0.76;100.00;101689.88;6082580;19;20015;-72
2024/01/21 06:48:22;;;;;;;9.30;4.43;;;;;;;0.76;100.00;101702.81;6081967;19;20568;-72
2024/01/21 06:50:30;;;;;;;10.63;4.38;;;;;;;0.70;100.00;101689.78;6078744;19;20010;-72
2024/01/21 06:52:36;;;;;;;9.45;5.35;;;;;;;0.70;100.00;101686.34;6079608;19;20015;-76
2024/01/21 06:54:41;;;;;;;8.82;4.63;;;;;;;0.64;100.00;101684.53;6079556;19;20047;-72
2024/01/21 06:56:43;;;;;;;7.60;4.00;;;;;;;0.70;100.00;101688.94;6079683;19;20428;-74
2024/01/21 06:58:48;;;;;;;8.25;3.28;;;;;;;0.64;100.00;101689.72;6082033;19;20015;-72
2024/01/21 07:00:53;;;;;;;6.18;3.92;;;;;;;0.62;100.00;101710.38;6077126;19;20003;-73
2024/01/21 07:02:59;;;;;;;7.00;3.55;;;;;;;0.65;100.00;101709.56;6080925;19;20619;-72
2024/01/21 07:05:04;;;;;;;5.95;3.80;;;;;;;0.64;100.00;101705.25;6081410;19;20590;-73
2024/01/21 07:07:12;;;;;;;10.02;4.60;;;;;;;0.60;100.00;101709.47;6083732;19;20078;-71
2024/01/21 07:09:17;;;;;;;11.43;5.40;;;;;;;0.62;100.00;101740.56;6078676;19;20387;-72
2024/01/21 07:11:22;;;;;;;7.32;3.83;;;;;;;0.63;100.00;101747.44;6077150;19;20368;-71
2024/01/21 07:13:27;;;;;;;9.45;4.63;;;;;;;0.70;100.00;101745.84;6081732;19;20307;-72
2024/01/21 07:15:34;;;;;;;11.85;5.55;;;;;;;0.72;100.00;101731.22;6078842;19;20358;-71
2024/01/21 07:17:39;;;;;;;9.63;4.88;;;;;;;0.68;100.00;101750.97;6076569;19;20050;-74
2024/01/21 07:19:45;;;;;;;8.57;4.15;;;;;;;0.69;100.00;101755.31;6080631;19;20581;-73
2024/01/21 07:21:50;;;;;;;6.43;3.92;;;;;;;0.72;100.00;101755.38;6082371;19;20013;-72
2024/01/21 07:24:00;;;;;;;11.05;4.97;;;;;;;0.75;100.00;101757.13;6081171;19;20416;-72
2024/01/21 07:26:06;;;;;;;13.20;5.07;;;;;;;0.73;100.00;101758.81;6077724;19;20447;-71
2024/01/21 07:28:11;;;;;;;8.32;3.85;;;;;;;0.76;100.00;101749.38;6080694;19;20629;-71
2024/01/21 07:30:17;;;;;;;10.55;5.40;;;;;;;0.78;100.00;101745.09;6079459;19;20013;-72
2024/01/21 07:32:22;;;;;;;11.98;4.57;;;;;;;0.79;100.00;101753.72;6080655;19;20413;-74
2024/01/21 07:34:28;;;;;;;5.32;3.85;;;;;;;0.86;100.00;101751.25;6081189;19;20027;-75
2024/01/21 07:36:35;;;;;;;8.70;4.55;;;;;;;0.81;100.00;101758.06;6076681;19;20006;-76
2024/01/21 07:38:38;;;;;;;7.85;4.40;;;;;;;0.79;100.00;101777.91;6079767;19;20003;-75
2024/01/21 07:40:47;;;;;;;7.13;4.70;;;;;;;0.83;100.00;101774.50;6079619;19;20376;-74
2024/01/21 07:42:52;;;;;;;9.45;3.88;;;;;;;0.88;100.00;101782.31;6080202;19;20038;-76
2024/01/21 07:44:55;;;;;;;7.60;5.13;;;;;;;0.91;100.00;101787.53;6082570;19;20017;-72
2024/01/21 07:47:02;;;;;;;8.73;3.97;;;;;;;0.94;100.00;101781.53;6079045;19;20471;-73
2024/01/21 07:49:09;;;;;;;8.60;4.45;;;;;;;0.94;100.00;101766.88;6078189;19;20011;-74
2024/01/21 07:51:15;;;;;;;9.20;5.28;;;;;;;0.92;100.00;101763.38;6080907;19;20357;-73
2024/01/21 07:53:18;;;;;;;7.78;4.38;;;;;;;0.94;100.00;101763.44;6081856;19;20035;-73
2024/01/21 07:55:26;;;;;;;8.45;3.95;;;;;;;0.92;100.00;101772.88;6075686;19;20014;-73
2024/01/21 07:57:34;;;;;;;7.97;3.97;;;;;;;0.96;100.00;101769.50;6085679;19;20006;-74
2024/01/21 07:59:41;;;;;;;7.18;4.22;;;;;;;1.03;100.00;101786.88;6091467;19;20100;-74
2024/01/21 08:01:48;;;;;;;10.10;4.93;;;;;;;1.00;100.00;101787.69;6086532;19;20018;-73
2024/01/21 08:03:53;;;;;;;9.10;4.75;;;;;;;1.06;100.00;101779.13;6085203;19;20003;-74
2024/01/21 08:06:01;;;;;;;7.05;4.75;;;;;;;1.05;100.00;101801.56;6083609;19;20003;-73
2024/01/21 08:08:10;;;;;;;11.80;5.55;;;;;;;1.10;100.00;101801.59;6085034;19;20329;-73
2024/01/21 08:10:15;;;;;;;6.32;3.85;;;;;;;1.18;100.00;101791.34;6085089;19;20002;-74
2024/01/21 08:12:20;;;;;;;8.68;4.97;;;;;;;1.15;100.00;101793.91;6081827;19;20024;-73
2024/01/21 08:14:30;;;;;;;7.88;4.68;;;;;;;1.23;100.00;101798.34;6088794;19;20002;-72
2024/01/21 08:16:36;;;;;;;6.72;3.40;;;;;;;1.20;100.00;101803.47;6090568;19;20054;-73
2024/01/21 08:18:44;;;;;;;10.57;4.80;;;;;;;1.25;100.00;101813.91;6081788;19;20074;-72
2024/01/21 08:20:51;;;;;;;12.32;5.00;;;;;;;1.26;100.00;101811.34;6086926;19;20348;-72
2024/01/21 08:22:57;;;;;;;9.95;6.63;;;;;;;1.30;100.00;101820.88;6086560;19;20011;-74
2024/01/21 08:25:02;;;;;;;10.50;5.35;;;;;;;1.34;100.00;101813.16;6081059;19;20038;-73
2024/01/21 08:27:09;;;;;;;6.65;4.25;;;;;;;1.39;100.00;101819.25;6083105;19;20077;-74
2024/01/21 08:29:11;;;;;;;9.80;5.55;;;;;;;1.36;100.00;101820.09;6087856;19;20510;-72
2024/01/21 08:31:19;;;;;;;10.05;5.20;;;;;;;1.35;100.00;101820.94;6085677;19;20091;-72
2024/01/21 08:33:27;;;;;;;7.65;3.75;;;;;;;1.40;100.00;101818.44;6075756;19;20521;-72
2024/01/21 08:35:36;;;;;;;11.18;4.78;;;;;;;1.43;100.00;101832.28;6086922;19;20447;-74
2024/01/21 08:37:41;;;;;;;11.07;5.15;;;;;;;1.43;100.00;101834.88;6087626;19;20011;-75
2024/01/21 08:39:48;;;;;;;6.07;3.20;;;;;;;1.42;100.00;101834.84;6082415;19;20027;-74
2024/01/21 08:41:53;;;;;;;10.10;4.65;;;;;;;1.48;100.00;101827.16;6085629;19;20009;-73
2024/01/21 08:44:02;;;;;;;8.05;3.50;;;;;;;1.51;100.00;101830.66;6086871;19;20006;-73
2024/01/21 08:46:12;;;;;;;10.00;4.55;;;;;;;1.57;100.00;101826.41;6083321;19;20582;-74
2024/01/21 08:48:20;;;;;;;5.68;3.25;;;;;;;1.59;100.00;101830.75;6083969;19;20007;-73
2024/01/21 08:50:28;;;;;;;12.70;4.85;;;;;;;1.59;100.00;101835.06;6084485;19;20661;-74
2024/01/21 08:52:33;;;;;;;8.95;5.10;;;;;;;1.63;100.00;101832.50;6082912;19;20897;-73
2024/01/21 08:54:40;;;;;;;13.23;5.57;;;;;;;1.62;100.00;101812.66;6082347;19;20038;-72
2024/01/21 08:56:45;;;;;;;10.75;4.93;;;;;;;1.60;100.00;101829.03;6085142;19;20154;-75
2024/01/21 08:58:50;;;;;;;10.30;4.18;;;;;;;1.63;100.00;101829.06;6087378;19;20014;-75
2024/01/21 09:00:55;;;;;;;10.07;4.72;;;;;;;1.69;100.00;101847.28;6084125;19;20023;-76
2024/01/21 09:03:01;;;;;;;11.07;5.22;;;;;;;1.72;100.00;101855.97;6082627;19;20006;-74
2024/01/21 09:05:10;;;;;;;10.13;5.13;;;;;;;1.73;100.00;101849.91;6084909;19;20444;-75
2024/01/21 09:07:15;;;;;;;10.88;5.05;;;;;;;1.77;100.00;101855.16;6088130;19;20015;-73
2024/01/21 09:09:20;;;;;;;11.25;6.25;;;;;;;1.76;100.00;101856.84;6085693;19;20010;-76
2024/01/21 09:11:25;;;;;;;10.38;5.97;;;;;;;1.78;100.00;101862.06;6088404;19;20512;-75
2024/01/21 09:13:30;;;;;;;11.27;4.90;;;;;;;1.75;100.00;101852.53;6086934;19;20307;-72
2024/01/21 09:15:36;;;;;;;8.60;5.22;;;;;;;1.84;100.00;101838.81;6086902;19;20033;-73
2024/01/21 09:17:44;;;;;;;9.02;4.70;;;;;;;1.84;100.00;101847.44;6084637;19;20573;-74
2024/01/21 09:19:49;;;;;;;13.50;5.97;;;;;;;1.85;100.00;101836.25;6088659;19;20014;-74
2024/01/21 09:21:57;;;;;;;12.05;4.57;;;;;;;1.85;100.00;101836.25;6086280;19;20034;-72
2024/01/21 09:24:04;;;;;;;13.65;6.05;;;;;;;1.91;100.00;101849.25;6080071;19;20415;-75
2024/01/21 09:26:10;;;;;;;9.30;5.25;;;;;;;1.95;100.00;101826.84;6086818;19;20011;-75
2024/01/21 09:28:12;;;;;;;11.45;5.45;;;;;;;2.03;100.00;101834.69;6086278;19;20043;-74
2024/01/21 09:30:18;;;;;;;10.73;5.43;;;;;;;2.09;100.00;101843.41;6083057;19;20023;-74
2024/01/21 09:32:23;;;;;;;9.70;4.85;;;;;;;2.17;100.00;101820.16;6084326;19;20094;-75
2024/01/21 09:34:29;;;;;;;11.77;7.60;;;;;;;2.20;100.00;101823.63;6086709;19;20010;-75
2024/01/21 09:36:35;;;;;;;13.32;4.85;;;;;;;2.24;100.00;101824.56;6083783;19;20006;-76
2024/01/21 09:38:44;;;;;;;10.82;6.00;;;;;;;2.26;100.00;101829.75;6078748;19;20464;-76
2024/01/21 09:41:05;;;;;;;14.75;6.13;;;;;;;2.23;100.00;101829.72;6082395;19;20054;-72